sensor_id;sensor_type;location;lat;lon;timestamp;pressure;altitude;pressure_sealevel;temperature
17716;BMP280;50159;49.426;11.182;2023-01-19T00:00:53;61792.09;;;-132.92
17716;BMP280;50159;49.426;11.182;2023-01-19T00:03:20;61792.09;;;-132.92
17716;BMP280;50159;49.426;11.182;2023-01-19T00:05:47;61792.09;;;-132.92
17716;BMP280;50159;49.426;11.182;2023-01-19T00:08:14;61792.09;;;-132.92
17716;BMP280;50159;49.426;11.182;2023-01-19T00:10:44;61792.09;;;-132.92
17716;BMP280;50159;49.426;11.182;2023-01-19T00:13:13;61792.09;;;-132.92
17716;BMP280;50159;49.426;11.182;2023-01-19T00:15:40;61792.09;;;-132.92
17716;BMP280;50159;49.426;11.182;2023-01-19T00:18:07;61792.09;;;-132.92
17716;BMP280;50159;49.426;11.182;2023-01-19T00:20:37;61792.09;;;-132.92
17716;BMP280;50159;49.426;11.182;2023-01-19T00:23:05;61792.09;;;-132.92
17716;BMP280;50159;49.426;11.182;2023-01-19T00:25:34;61792.09;;;-132.92
17716;BMP280;50159;49.426;11.182;2023-01-19T00:28:01;61792.09;;;-132.92
17716;BMP280;50159;49.426;11.182;2023-01-19T00:30:28;61792.09;;;-132.92
17716;BMP280;50159;49.426;11.182;2023-01-19T00:32:55;61792.09;;;-132.92
17716;BMP280;50159;49.426;11.182;2023-01-19T00:35:22;61792.09;;;-132.92
17716;BMP280;50159;49.426;11.182;2023-01-19T00:37:49;61792.09;;;-132.92
17716;BMP280;50159;49.426;11.182;2023-01-19T00:40:17;61792.09;;;-132.92
17716;BMP280;50159;49.426;11.182;2023-01-19T00:42:43;61792.09;;;-132.92
17716;BMP280;50159;49.426;11.182;2023-01-19T00:45:16;61792.09;;;-132.92
17716;BMP280;50159;49.426;11.182;2023-01-19T00:47:47;61792.09;;;-132.92
17716;BMP280;50159;49.426;11.182;2023-01-19T00:50:16;61792.09;;;-132.92
17716;BMP280;50159;49.426;11.182;2023-01-19T00:52:44;61792.09;;;-132.92
17716;BMP280;50159;49.426;11.182;2023-01-19T00:55:13;61792.09;;;-132.92
17716;BMP280;50159;49.426;11.182;2023-01-19T00:57:42;61792.09;;;-132.92
17716;BMP280;50159;49.426;11.182;2023-01-19T01:00:13;61792.09;;;-132.92
17716;BMP280;50159;49.426;11.182;2023-01-19T01:02:42;61792.09;;;-132.92
17716;BMP280;50159;49.426;11.182;2023-01-19T01:05:11;61792.09;;;-132.92
17716;BMP280;50159;49.426;11.182;2023-01-19T01:07:39;61792.09;;;-132.92
17716;BMP280;50159;49.426;11.182;2023-01-19T01:10:14;61792.09;;;-132.92
17716;BMP280;50159;49.426;11.182;2023-01-19T01:12:41;61792.09;;;-132.92
17716;BMP280;50159;49.426;11.182;2023-01-19T01:15:28;61792.09;;;-132.92
17716;BMP280;50159;49.426;11.182;2023-01-19T01:17:56;61792.09;;;-132.92
17716;BMP280;50159;49.426;11.182;2023-01-19T01:20:26;61792.09;;;-132.92
17716;BMP280;50159;49.426;11.182;2023-01-19T01:22:55;61792.09;;;-132.92
17716;BMP280;50159;49.426;11.182;2023-01-19T01:25:24;61792.09;;;-132.92
17716;BMP280;50159;49.426;11.182;2023-01-19T01:27:53;61792.09;;;-132.92
17716;BMP280;50159;49.426;11.182;2023-01-19T01:30:20;61792.09;;;-132.92
17716;BMP280;50159;49.426;11.182;2023-01-19T01:32:48;61792.09;;;-132.92
17716;BMP280;50159;49.426;11.182;2023-01-19T01:35:16;61792.09;;;-132.92
17716;BMP280;50159;49.426;11.182;2023-01-19T01:37:43;61792.09;;;-132.92
17716;BMP280;50159;49.426;11.182;2023-01-19T01:40:16;61792.09;;;-132.92
17716;BMP280;50159;49.426;11.182;2023-01-19T01:42:44;61792.09;;;-132.92
17716;BMP280;50159;49.426;11.182;2023-01-19T01:45:32;61792.09;;;-132.92
17716;BMP280;50159;49.426;11.182;2023-01-19T01:48:23;61792.09;;;-132.92
17716;BMP280;50159;49.426;11.182;2023-01-19T01:50:59;61792.09;;;-132.92
17716;BMP280;50159;49.426;11.182;2023-01-19T01:53:58;61792.09;;;-132.92
17716;BMP280;50159;49.426;11.182;2023-01-19T01:56:34;61792.09;;;-132.92
17716;BMP280;50159;49.426;11.182;2023-01-19T01:59:06;61792.09;;;-132.92
17716;BMP280;50159;49.426;11.182;2023-01-19T02:01:35;61792.09;;;-132.92
17716;BMP280;50159;49.426;11.182;2023-01-19T02:04:22;61792.09;;;-132.92
17716;BMP280;50159;49.426;11.182;2023-01-19T02:06:49;61792.09;;;-132.92
17716;BMP280;50159;49.426;11.182;2023-01-19T02:09:36;61792.09;;;-132.92
17716;BMP280;50159;49.426;11.182;2023-01-19T02:12:22;61792.09;;;-132.92
17716;BMP280;50159;49.426;11.182;2023-01-19T02:15:17;61792.09;;;-132.92
17716;BMP280;50159;49.426;11.182;2023-01-19T02:17:46;61792.09;;;-132.92
17716;BMP280;50159;49.426;11.182;2023-01-19T02:20:13;61792.09;;;-132.92
17716;BMP280;50159;49.426;11.182;2023-01-19T02:22:48;61792.09;;;-132.92
17716;BMP280;50159;49.426;11.182;2023-01-19T02:25:17;61792.09;;;-132.92
17716;BMP280;50159;49.426;11.182;2023-01-19T02:27:45;61792.09;;;-132.92
17716;BMP280;50159;49.426;11.182;2023-01-19T02:30:13;61792.09;;;-132.92
17716;BMP280;50159;49.426;11.182;2023-01-19T02:32:42;61792.09;;;-132.92
17716;BMP280;50159;49.426;11.182;2023-01-19T02:35:11;61792.09;;;-132.92
17716;BMP280;50159;49.426;11.182;2023-01-19T02:37:40;61792.09;;;-132.92
17716;BMP280;50159;49.426;11.182;2023-01-19T02:40:13;61792.09;;;-132.92
17716;BMP280;50159;49.426;11.182;2023-01-19T02:42:48;61792.09;;;-132.92
17716;BMP280;50159;49.426;11.182;2023-01-19T02:45:19;61792.09;;;-132.92
17716;BMP280;50159;49.426;11.182;2023-01-19T02:47:50;61792.09;;;-132.92
17716;BMP280;50159;49.426;11.182;2023-01-19T02:55:41;61792.09;;;-132.92
17716;BMP280;50159;49.426;11.182;2023-01-19T02:58:31;61792.09;;;-132.92
17716;BMP280;50159;49.426;11.182;2023-01-19T03:01:09;61792.09;;;-132.92
17716;BMP280;50159;49.426;11.182;2023-01-19T03:04:11;61792.09;;;-132.92
17716;BMP280;50159;49.426;11.182;2023-01-19T03:06:58;61792.09;;;-132.92
17716;BMP280;50159;49.426;11.182;2023-01-19T03:09:46;61792.09;;;-132.92
17716;BMP280;50159;49.426;11.182;2023-01-19T03:12:51;61792.09;;;-132.92
17716;BMP280;50159;49.426;11.182;2023-01-19T03:15:29;61792.09;;;-132.92
17716;BMP280;50159;49.426;11.182;2023-01-19T03:18:00;61792.09;;;-132.92
17716;BMP280;50159;49.426;11.182;2023-01-19T03:20:28;61792.09;;;-132.92
17716;BMP280;50159;49.426;11.182;2023-01-19T03:23:02;61792.09;;;-132.92
17716;BMP280;50159;49.426;11.182;2023-01-19T03:25:34;61792.09;;;-132.92
17716;BMP280;50159;49.426;11.182;2023-01-19T03:28:03;61792.09;;;-132.92
17716;BMP280;50159;49.426;11.182;2023-01-19T03:30:37;61792.09;;;-132.92
17716;BMP280;50159;49.426;11.182;2023-01-19T03:33:15;61792.09;;;-132.92
17716;BMP280;50159;49.426;11.182;2023-01-19T03:35:48;61792.09;;;-132.92
17716;BMP280;50159;49.426;11.182;2023-01-19T03:38:22;61792.09;;;-132.92
17716;BMP280;50159;49.426;11.182;2023-01-19T03:40:58;61792.09;;;-132.92
17716;BMP280;50159;49.426;11.182;2023-01-19T03:43:27;61792.09;;;-132.92
17716;BMP280;50159;49.426;11.182;2023-01-19T03:45:55;61792.09;;;-132.92
17716;BMP280;50159;49.426;11.182;2023-01-19T03:48:23;61792.09;;;-132.92
17716;BMP280;50159;49.426;11.182;2023-01-19T03:50:51;61792.09;;;-132.92
17716;BMP280;50159;49.426;11.182;2023-01-19T03:53:20;61792.09;;;-132.92
17716;BMP280;50159;49.426;11.182;2023-01-19T03:55:50;61792.09;;;-132.92
17716;BMP280;50159;49.426;11.182;2023-01-19T03:58:17;61792.09;;;-132.92
17716;BMP280;50159;49.426;11.182;2023-01-19T04:00:44;61792.09;;;-132.92
17716;BMP280;50159;49.426;11.182;2023-01-19T04:03:16;61792.09;;;-132.92
17716;BMP280;50159;49.426;11.182;2023-01-19T04:05:44;61792.09;;;-132.92
17716;BMP280;50159;49.426;11.182;2023-01-19T04:08:12;61792.09;;;-132.92
17716;BMP280;50159;49.426;11.182;2023-01-19T04:10:41;61792.09;;;-132.92
17716;BMP280;50159;49.426;11.182;2023-01-19T04:13:08;61792.09;;;-132.92
17716;BMP280;50159;49.426;11.182;2023-01-19T04:15:34;61792.09;;;-132.92
17716;BMP280;50159;49.426;11.182;2023-01-19T04:18:01;61792.09;;;-132.92
17716;BMP280;50159;49.426;11.182;2023-01-19T04:20:28;61792.09;;;-132.92
17716;BMP280;50159;49.426;11.182;2023-01-19T04:22:59;61792.09;;;-132.92
17716;BMP280;50159;49.426;11.182;2023-01-19T04:25:28;61792.09;;;-132.92
17716;BMP280;50159;49.426;11.182;2023-01-19T04:27:55;61792.09;;;-132.92
17716;BMP280;50159;49.426;11.182;2023-01-19T04:30:24;61792.09;;;-132.92
17716;BMP280;50159;49.426;11.182;2023-01-19T04:32:51;61792.09;;;-132.92
17716;BMP280;50159;49.426;11.182;2023-01-19T04:35:18;61792.09;;;-132.92
17716;BMP280;50159;49.426;11.182;2023-01-19T04:37:44;61792.09;;;-132.92
17716;BMP280;50159;49.426;11.182;2023-01-19T04:40:11;61792.09;;;-132.92
17716;BMP280;50159;49.426;11.182;2023-01-19T04:42:42;61792.09;;;-132.92
17716;BMP280;50159;49.426;11.182;2023-01-19T04:45:13;61792.09;;;-132.92
17716;BMP280;50159;49.426;11.182;2023-01-19T04:47:40;61792.09;;;-132.92
17716;BMP280;50159;49.426;11.182;2023-01-19T04:50:10;61792.09;;;-132.92
17716;BMP280;50159;49.426;11.182;2023-01-19T04:52:38;61792.09;;;-132.92
17716;BMP280;50159;49.426;11.182;2023-01-19T04:55:06;61792.09;;;-132.92
17716;BMP280;50159;49.426;11.182;2023-01-19T04:57:33;61792.09;;;-132.92
17716;BMP280;50159;49.426;11.182;2023-01-19T04:59:59;61792.09;;;-132.92
17716;BMP280;50159;49.426;11.182;2023-01-19T05:02:26;61792.09;;;-132.92
17716;BMP280;50159;49.426;11.182;2023-01-19T05:04:53;61792.09;;;-132.92
17716;BMP280;50159;49.426;11.182;2023-01-19T05:07:20;61792.09;;;-132.92
17716;BMP280;50159;49.426;11.182;2023-01-19T05:09:47;61792.09;;;-132.92
17716;BMP280;50159;49.426;11.182;2023-01-19T05:12:14;61792.09;;;-132.92
17716;BMP280;50159;49.426;11.182;2023-01-19T05:14:41;61792.09;;;-132.92
17716;BMP280;50159;49.426;11.182;2023-01-19T05:17:09;61792.09;;;-132.92
17716;BMP280;50159;49.426;11.182;2023-01-19T05:19:36;61792.09;;;-132.92
17716;BMP280;50159;49.426;11.182;2023-01-19T05:22:04;61792.09;;;-132.92
17716;BMP280;50159;49.426;11.182;2023-01-19T05:24:31;61792.09;;;-132.92
17716;BMP280;50159;49.426;11.182;2023-01-19T05:26:58;61792.09;;;-132.92
17716;BMP280;50159;49.426;11.182;2023-01-19T05:29:25;61792.09;;;-132.92
17716;BMP280;50159;49.426;11.182;2023-01-19T05:31:52;61792.09;;;-132.92
17716;BMP280;50159;49.426;11.182;2023-01-19T05:34:18;61792.09;;;-132.92
17716;BMP280;50159;49.426;11.182;2023-01-19T05:36:45;61792.09;;;-132.92
17716;BMP280;50159;49.426;11.182;2023-01-19T05:39:12;61792.09;;;-132.92
17716;BMP280;50159;49.426;11.182;2023-01-19T05:41:39;61792.09;;;-132.92
17716;BMP280;50159;49.426;11.182;2023-01-19T05:44:08;61792.09;;;-132.92
17716;BMP280;50159;49.426;11.182;2023-01-19T05:46:35;61792.09;;;-132.92
17716;BMP280;50159;49.426;11.182;2023-01-19T05:49:03;61792.09;;;-132.92
17716;BMP280;50159;49.426;11.182;2023-01-19T05:51:30;61792.09;;;-132.92
17716;BMP280;50159;49.426;11.182;2023-01-19T05:54:00;61792.09;;;-132.92
17716;BMP280;50159;49.426;11.182;2023-01-19T05:56:27;61792.09;;;-132.92
17716;BMP280;50159;49.426;11.182;2023-01-19T05:58:54;61792.09;;;-132.92
17716;BMP280;50159;49.426;11.182;2023-01-19T06:01:21;61792.09;;;-132.92
17716;BMP280;50159;49.426;11.182;2023-01-19T06:03:48;61792.09;;;-132.92
17716;BMP280;50159;49.426;11.182;2023-01-19T06:06:15;61792.09;;;-132.92
17716;BMP280;50159;49.426;11.182;2023-01-19T06:08:45;61792.09;;;-132.92
17716;BMP280;50159;49.426;11.182;2023-01-19T06:11:12;61792.09;;;-132.92
17716;BMP280;50159;49.426;11.182;2023-01-19T06:13:39;61792.09;;;-132.92
17716;BMP280;50159;49.426;11.182;2023-01-19T06:16:08;61792.09;;;-132.92
17716;BMP280;50159;49.426;11.182;2023-01-19T06:18:35;61792.09;;;-132.92
17716;BMP280;50159;49.426;11.182;2023-01-19T06:21:07;61792.09;;;-132.92
17716;BMP280;50159;49.426;11.182;2023-01-19T06:23:35;61792.09;;;-132.92
17716;BMP280;50159;49.426;11.182;2023-01-19T06:26:02;61792.09;;;-132.92
17716;BMP280;50159;49.426;11.182;2023-01-19T06:28:32;61792.09;;;-132.92
17716;BMP280;50159;49.426;11.182;2023-01-19T06:30:59;61792.09;;;-132.92
17716;BMP280;50159;49.426;11.182;2023-01-19T06:33:26;61792.09;;;-132.92
17716;BMP280;50159;49.426;11.182;2023-01-19T06:35:54;61792.09;;;-132.92
17716;BMP280;50159;49.426;11.182;2023-01-19T06:38:21;61792.09;;;-132.92
17716;BMP280;50159;49.426;11.182;2023-01-19T06:40:55;61792.09;;;-132.92
17716;BMP280;50159;49.426;11.182;2023-01-19T06:43:25;61792.09;;;-132.92
17716;BMP280;50159;49.426;11.182;2023-01-19T06:45:52;61792.09;;;-132.92
17716;BMP280;50159;49.426;11.182;2023-01-19T06:48:19;61792.09;;;-132.92
17716;BMP280;50159;49.426;11.182;2023-01-19T06:50:47;61792.09;;;-132.92
17716;BMP280;50159;49.426;11.182;2023-01-19T06:53:15;61792.09;;;-132.92
17716;BMP280;50159;49.426;11.182;2023-01-19T06:55:43;61792.09;;;-132.92
17716;BMP280;50159;49.426;11.182;2023-01-19T06:58:11;61792.09;;;-132.92
17716;BMP280;50159;49.426;11.182;2023-01-19T07:00:38;61792.09;;;-132.92
17716;BMP280;50159;49.426;11.182;2023-01-19T07:03:06;61792.09;;;-132.92
17716;BMP280;50159;49.426;11.182;2023-01-19T07:05:35;61792.09;;;-132.92
17716;BMP280;50159;49.426;11.182;2023-01-19T07:08:02;61792.09;;;-132.92
17716;BMP280;50159;49.426;11.182;2023-01-19T07:10:29;61792.09;;;-132.92
17716;BMP280;50159;49.426;11.182;2023-01-19T07:13:16;61792.09;;;-132.92
17716;BMP280;50159;49.426;11.182;2023-01-19T07:15:43;61792.09;;;-132.92
17716;BMP280;50159;49.426;11.182;2023-01-19T07:18:10;61792.09;;;-132.92
17716;BMP280;50159;49.426;11.182;2023-01-19T07:20:37;61792.09;;;-132.92
17716;BMP280;50159;49.426;11.182;2023-01-19T07:23:04;61792.09;;;-132.92
17716;BMP280;50159;49.426;11.182;2023-01-19T07:25:30;61792.09;;;-132.92
17716;BMP280;50159;49.426;11.182;2023-01-19T07:27:58;61792.09;;;-132.92
17716;BMP280;50159;49.426;11.182;2023-01-19T07:30:25;61792.09;;;-132.92
17716;BMP280;50159;49.426;11.182;2023-01-19T07:32:56;61792.09;;;-132.92
17716;BMP280;50159;49.426;11.182;2023-01-19T07:35:24;61792.09;;;-132.92
17716;BMP280;50159;49.426;11.182;2023-01-19T07:37:51;61792.09;;;-132.92
17716;BMP280;50159;49.426;11.182;2023-01-19T07:40:18;61792.09;;;-132.92
17716;BMP280;50159;49.426;11.182;2023-01-19T07:42:47;61792.09;;;-132.92
17716;BMP280;50159;49.426;11.182;2023-01-19T07:45:16;61792.09;;;-132.92
17716;BMP280;50159;49.426;11.182;2023-01-19T07:47:44;61792.09;;;-132.92
17716;BMP280;50159;49.426;11.182;2023-01-19T07:50:11;61792.09;;;-132.92
17716;BMP280;50159;49.426;11.182;2023-01-19T07:52:39;61792.09;;;-132.92
17716;BMP280;50159;49.426;11.182;2023-01-19T07:55:07;61792.09;;;-132.92
17716;BMP280;50159;49.426;11.182;2023-01-19T07:57:34;61792.09;;;-132.92
17716;BMP280;50159;49.426;11.182;2023-01-19T08:00:03;61792.09;;;-132.92
17716;BMP280;50159;49.426;11.182;2023-01-19T08:02:30;61792.09;;;-132.92
17716;BMP280;50159;49.426;11.182;2023-01-19T08:04:59;61792.09;;;-132.92
17716;BMP280;50159;49.426;11.182;2023-01-19T08:07:26;61792.09;;;-132.92
17716;BMP280;50159;49.426;11.182;2023-01-19T08:09:52;61792.09;;;-132.92
17716;BMP280;50159;49.426;11.182;2023-01-19T08:12:19;61792.09;;;-132.92
17716;BMP280;50159;49.426;11.182;2023-01-19T08:14:46;61792.09;;;-132.92
17716;BMP280;50159;49.426;11.182;2023-01-19T08:17:13;61792.09;;;-132.92
17716;BMP280;50159;49.426;11.182;2023-01-19T08:19:42;61792.09;;;-132.92
17716;BMP280;50159;49.426;11.182;2023-01-19T08:22:08;61792.09;;;-132.92
17716;BMP280;50159;49.426;11.182;2023-01-19T08:24:35;61792.09;;;-132.92
17716;BMP280;50159;49.426;11.182;2023-01-19T08:27:02;61792.09;;;-132.92
17716;BMP280;50159;49.426;11.182;2023-01-19T08:29:30;61792.09;;;-132.92
17716;BMP280;50159;49.426;11.182;2023-01-19T08:31:58;61792.09;;;-132.92
17716;BMP280;50159;49.426;11.182;2023-01-19T08:34:28;61792.09;;;-132.92
17716;BMP280;50159;49.426;11.182;2023-01-19T08:36:58;61792.09;;;-132.92
17716;BMP280;50159;49.426;11.182;2023-01-19T08:39:25;61792.09;;;-132.92
17716;BMP280;50159;49.426;11.182;2023-01-19T08:41:52;61792.09;;;-132.92
17716;BMP280;50159;49.426;11.182;2023-01-19T08:44:19;61792.09;;;-132.92
17716;BMP280;50159;49.426;11.182;2023-01-19T08:46:46;61792.09;;;-132.92
17716;BMP280;50159;49.426;11.182;2023-01-19T08:49:14;61792.09;;;-132.92
17716;BMP280;50159;49.426;11.182;2023-01-19T08:51:41;61792.09;;;-132.92
17716;BMP280;50159;49.426;11.182;2023-01-19T08:54:12;61792.09;;;-132.92
17716;BMP280;50159;49.426;11.182;2023-01-19T08:56:39;61792.09;;;-132.92
17716;BMP280;50159;49.426;11.182;2023-01-19T08:59:06;61792.09;;;-132.92
17716;BMP280;50159;49.426;11.182;2023-01-19T09:01:37;61792.09;;;-132.92
17716;BMP280;50159;49.426;11.182;2023-01-19T09:04:05;61792.09;;;-132.92
17716;BMP280;50159;49.426;11.182;2023-01-19T09:06:32;61792.09;;;-132.92
17716;BMP280;50159;49.426;11.182;2023-01-19T09:08:59;61792.09;;;-132.92
17716;BMP280;50159;49.426;11.182;2023-01-19T09:11:26;61792.09;;;-132.92
17716;BMP280;50159;49.426;11.182;2023-01-19T09:13:53;61792.09;;;-132.92
17716;BMP280;50159;49.426;11.182;2023-01-19T09:16:20;61792.09;;;-132.92
17716;BMP280;50159;49.426;11.182;2023-01-19T09:18:47;61792.09;;;-132.92
17716;BMP280;50159;49.426;11.182;2023-01-19T09:21:14;61792.09;;;-132.92
17716;BMP280;50159;49.426;11.182;2023-01-19T09:23:41;61792.09;;;-132.92
17716;BMP280;50159;49.426;11.182;2023-01-19T09:26:09;61792.09;;;-132.92
17716;BMP280;50159;49.426;11.182;2023-01-19T09:28:36;96829.50;;;1.27
17716;BMP280;50159;49.426;11.182;2023-01-19T09:31:06;96835.97;;;0.88
17716;BMP280;50159;49.426;11.182;2023-01-19T09:33:33;96840.75;;;0.79
17716;BMP280;50159;49.426;11.182;2023-01-19T09:36:00;96847.50;;;0.80
17716;BMP280;50159;49.426;11.182;2023-01-19T09:38:28;96848.91;;;0.85
17716;BMP280;50159;49.426;11.182;2023-01-19T09:40:59;96852.63;;;0.95
17716;BMP280;50159;49.426;11.182;2023-01-19T09:43:53;96850.16;;;1.09
17716;BMP280;50159;49.426;11.182;2023-01-19T09:49:00;96835.09;;;1.33
17716;BMP280;50159;49.426;11.182;2023-01-19T09:51:36;96837.66;;;1.33
17716;BMP280;50159;49.426;11.182;2023-01-19T09:54:45;96833.13;;;1.23
17716;BMP280;50159;49.426;11.182;2023-01-19T09:57:14;96836.00;;;1.32
17716;BMP280;50159;49.426;11.182;2023-01-19T09:59:41;96842.03;;;1.31
17716;BMP280;50159;49.426;11.182;2023-01-19T10:05:30;96836.69;;;1.64
17716;BMP280;50159;49.426;11.182;2023-01-19T10:08:17;96837.91;;;1.86
17716;BMP280;50159;49.426;11.182;2023-01-19T10:10:52;96826.88;;;2.00
17716;BMP280;50159;49.426;11.182;2023-01-19T10:13:46;96836.19;;;2.29
17716;BMP280;50159;49.426;11.182;2023-01-19T10:19:27;96820.41;;;2.76
17716;BMP280;50159;49.426;11.182;2023-01-19T10:21:59;96822.28;;;2.87
17716;BMP280;50159;49.426;11.182;2023-01-19T10:24:39;96817.28;;;2.71
17716;BMP280;50159;49.426;11.182;2023-01-19T10:27:25;96819.50;;;2.64
17716;BMP280;50159;49.426;11.182;2023-01-19T10:29:53;96815.34;;;2.61
17716;BMP280;50159;49.426;11.182;2023-01-19T10:32:29;96825.38;;;2.52
17716;BMP280;50159;49.426;11.182;2023-01-19T10:34:58;96821.81;;;2.41
17716;BMP280;50159;49.426;11.182;2023-01-19T10:37:38;96824.63;;;2.22
17716;BMP280;50159;49.426;11.182;2023-01-19T10:42:40;96822.59;;;1.71
17716;BMP280;50159;49.426;11.182;2023-01-19T10:45:26;96823.56;;;1.55
17716;BMP280;50159;49.426;11.182;2023-01-19T10:48:03;96820.50;;;1.49
17716;BMP280;50159;49.426;11.182;2023-01-19T10:50:33;96824.91;;;1.47
17716;BMP280;50159;49.426;11.182;2023-01-19T10:53:04;96835.88;;;1.49
17716;BMP280;50159;49.426;11.182;2023-01-19T10:55:36;96824.00;;;1.48
17716;BMP280;50159;49.426;11.182;2023-01-19T10:58:06;96826.91;;;1.42
17716;BMP280;50159;49.426;11.182;2023-01-19T11:00:41;96828.81;;;1.38
17716;BMP280;50159;49.426;11.182;2023-01-19T11:03:29;96833.13;;;1.38
17716;BMP280;50159;49.426;11.182;2023-01-19T11:08:46;96826.94;;;1.27
17716;BMP280;50159;49.426;11.182;2023-01-19T11:11:14;96825.63;;;1.20
17716;BMP280;50159;49.426;11.182;2023-01-19T11:13:41;96841.06;;;1.18
17716;BMP280;50159;49.426;11.182;2023-01-19T11:16:29;96827.03;;;1.10
17716;BMP280;50159;49.426;11.182;2023-01-19T11:18:57;96828.03;;;1.08
17716;BMP280;50159;49.426;11.182;2023-01-19T11:21:30;96830.41;;;1.11
17716;BMP280;50159;49.426;11.182;2023-01-19T11:24:03;96829.34;;;1.14
17716;BMP280;50159;49.426;11.182;2023-01-19T11:26:46;96821.41;;;1.19
17716;BMP280;50159;49.426;11.182;2023-01-19T11:29:22;96835.78;;;1.21
17716;BMP280;50159;49.426;11.182;2023-01-19T11:31:51;96818.03;;;1.47
17716;BMP280;50159;49.426;11.182;2023-01-19T11:34:34;96812.78;;;2.06
17716;BMP280;50159;49.426;11.182;2023-01-19T11:39:47;96804.00;;;3.05
17716;BMP280;50159;49.426;11.182;2023-01-19T11:42:16;96795.41;;;3.32
17716;BMP280;50159;49.426;11.182;2023-01-19T11:45:12;96798.69;;;3.34
17716;BMP280;50159;49.426;11.182;2023-01-19T11:47:43;96800.47;;;3.19
17716;BMP280;50159;49.426;11.182;2023-01-19T11:50:32;96792.38;;;2.99
17716;BMP280;50159;49.426;11.182;2023-01-19T11:53:22;96794.06;;;2.73
17716;BMP280;50159;49.426;11.182;2023-01-19T11:56:08;96794.38;;;2.55
17716;BMP280;50159;49.426;11.182;2023-01-19T11:58:42;96792.66;;;2.42
17716;BMP280;50159;49.426;11.182;2023-01-19T12:01:33;96805.59;;;2.26
17716;BMP280;50159;49.426;11.182;2023-01-19T12:04:23;96794.56;;;2.11
17716;BMP280;50159;49.426;11.182;2023-01-19T12:06:55;96793.47;;;2.01
17716;BMP280;50159;49.426;11.182;2023-01-19T12:09:32;96797.84;;;1.99
17716;BMP280;50159;49.426;11.182;2023-01-19T12:12:27;96789.16;;;2.01
17716;BMP280;50159;49.426;11.182;2023-01-19T12:15:41;96795.94;;;2.02
17716;BMP280;50159;49.426;11.182;2023-01-19T12:18:23;96798.84;;;1.97
17716;BMP280;50159;49.426;11.182;2023-01-19T12:20:53;96795.47;;;1.96
17716;BMP280;50159;49.426;11.182;2023-01-19T12:23:51;96791.53;;;1.91
17716;BMP280;50159;49.426;11.182;2023-01-19T12:26:31;96790.44;;;1.95
17716;BMP280;50159;49.426;11.182;2023-01-19T12:29:26;96789.31;;;1.99
17716;BMP280;50159;49.426;11.182;2023-01-19T12:34:45;96787.88;;;1.95
17716;BMP280;50159;49.426;11.182;2023-01-19T12:37:38;96787.69;;;1.98
17716;BMP280;50159;49.426;11.182;2023-01-19T12:40:25;96794.31;;;2.01
17716;BMP280;50159;49.426;11.182;2023-01-19T12:43:00;96796.38;;;1.95
17716;BMP280;50159;49.426;11.182;2023-01-19T12:45:32;96792.25;;;1.93
17716;BMP280;50159;49.426;11.182;2023-01-19T12:48:01;96787.97;;;1.93
17716;BMP280;50159;49.426;11.182;2023-01-19T12:50:36;96787.69;;;1.98
17716;BMP280;50159;49.426;11.182;2023-01-19T12:53:17;96786.13;;;1.95
17716;BMP280;50159;49.426;11.182;2023-01-19T12:55:56;96787.97;;;1.93
17716;BMP280;50159;49.426;11.182;2023-01-19T12:58:24;96799.31;;;1.89
17716;BMP280;50159;49.426;11.182;2023-01-19T13:01:15;96789.31;;;1.85
17716;BMP280;50159;49.426;11.182;2023-01-19T13:04:03;96788.50;;;1.84
17716;BMP280;50159;49.426;11.182;2023-01-19T13:09:33;96786.94;;;1.96
17716;BMP280;50159;49.426;11.182;2023-01-19T13:14:42;96775.78;;;2.65
17716;BMP280;50159;49.426;11.182;2023-01-19T13:17:32;96778.69;;;2.99
17716;BMP280;50159;49.426;11.182;2023-01-19T13:20:22;96787.38;;;3.36
17716;BMP280;50159;49.426;11.182;2023-01-19T13:23:14;96777.72;;;3.78
17716;BMP280;50159;49.426;11.182;2023-01-19T13:25:52;96778.47;;;4.04
17716;BMP280;50159;49.426;11.182;2023-01-19T13:28:34;96769.41;;;4.35
17716;BMP280;50159;49.426;11.182;2023-01-19T13:31:03;96765.06;;;4.48
17716;BMP280;50159;49.426;11.182;2023-01-19T13:33:47;96770.75;;;4.28
17716;BMP280;50159;49.426;11.182;2023-01-19T13:36:23;96774.66;;;3.97
17716;BMP280;50159;49.426;11.182;2023-01-19T13:38:53;96788.63;;;3.69
17716;BMP280;50159;49.426;11.182;2023-01-19T13:41:25;96781.03;;;3.41
17716;BMP280;50159;49.426;11.182;2023-01-19T13:44:06;96776.44;;;3.20
17716;BMP280;50159;49.426;11.182;2023-01-19T13:46:35;96775.16;;;3.01
17716;BMP280;50159;49.426;11.182;2023-01-19T13:49:18;96770.03;;;2.88
17716;BMP280;50159;49.426;11.182;2023-01-19T13:55:13;96783.09;;;2.57
17716;BMP280;50159;49.426;11.182;2023-01-19T13:57:43;96791.75;;;2.43
17716;BMP280;50159;49.426;11.182;2023-01-19T14:05:33;96782.66;;;2.23
17716;BMP280;50159;49.426;11.182;2023-01-19T14:08:20;96789.81;;;2.19
17716;BMP280;50159;49.426;11.182;2023-01-19T14:13:34;96787.59;;;2.13
17716;BMP280;50159;49.426;11.182;2023-01-19T14:16:14;96785.88;;;2.13
17716;BMP280;50159;49.426;11.182;2023-01-19T14:18:41;96792.66;;;2.14
17716;BMP280;50159;49.426;11.182;2023-01-19T14:21:12;96790.25;;;2.11
17716;BMP280;50159;49.426;11.182;2023-01-19T14:29:28;96784.41;;;2.09
17716;BMP280;50159;49.426;11.182;2023-01-19T14:32:11;96792.38;;;2.05
17716;BMP280;50159;49.426;11.182;2023-01-19T14:34:52;96794.22;;;2.03
17716;BMP280;50159;49.426;11.182;2023-01-19T14:37:46;96804.72;;;1.99
17716;BMP280;50159;49.426;11.182;2023-01-19T14:40:18;96791.44;;;1.92
17716;BMP280;50159;49.426;11.182;2023-01-19T14:43:00;96794.81;;;1.93
17716;BMP280;50159;49.426;11.182;2023-01-19T14:45:37;96806.00;;;1.92
17716;BMP280;50159;49.426;11.182;2023-01-19T14:48:19;96805.09;;;1.93
17716;BMP280;50159;49.426;11.182;2023-01-19T14:50:49;96801.69;;;1.92
17716;BMP280;50159;49.426;11.182;2023-01-19T14:53:37;96804.34;;;1.91
17716;BMP280;50159;49.426;11.182;2023-01-19T14:56:05;96812.22;;;1.88
17716;BMP280;50159;49.426;11.182;2023-01-19T14:58:34;96808.91;;;1.86
17716;BMP280;50159;49.426;11.182;2023-01-19T15:01:02;96810.53;;;1.87